Quick Links (Output Below):   Max & Min Temps   /   Climate Reports   /   Zone Forecasts
River Forecasts   /   Forestry Forecasts   /   Aviation Forecasts   /   Radars   /   Features

Terminal Aerodrome Forecast (Hot Springs)

Pick a Site:
Arkadelphia | El Dorado | Fayetteville | Fort Smith | Harrison | Highfill | Hot Springs | Jonesboro
Little Rock | Monticello | Mountain Home | Pine Bluff | Texarkana
 Forecast 

KHOT 142336Z 1500/1524 08005KT P6SM SCT150
     FM150400 16004KT P6SM BKN120
     FM150800 16004KT P6SM VCSH OVC080
     FM151700 20005KT P6SM BKN040 OVC080=


 Latest METARs (Observations) 
How to Decode METARs
04Z KHOT 150353Z AUTO 09005KT 10SM CLR 19/16 A3018 RMK AO2 SLP215
         T01940156
         
03Z KHOT 150253Z AUTO 07004KT 10SM CLR 20/16 A3018 RMK AO2 SLP215
         T02000161 53009
         
02Z KHOT 150153Z AUTO 09004KT 10SM CLR 20/16 A3017 RMK AO2 SLP213
         T02000161
         
01Z KHOT 150053Z AUTO 09004KT 10SM CLR 21/16 A3015 RMK AO2 SLP207
         T02110161
         
00Z KHOT 142353Z AUTO 12003KT 10SM CLR 24/16 A3015 RMK AO2 SLP206
         T02390156 10261 20222 55006
         
***** Today's Observations (Above) *****


23Z KHOT 142253Z AUTO 09004KT 10SM CLR 26/15 A3015 RMK AO2 SLP205
         T02560150
         
22Z KHOT 142153Z AUTO 07005KT 10SM CLR 26/14 A3015 RMK AO2 SLP206
         T02560144
         
21Z KHOT 142053Z AUTO 04004KT 10SM CLR 26/14 A3017 RMK AO2 SLP212
         T02560144 56024
         
20Z KHOT 141953Z AUTO 00000KT 10SM CLR 24/14 A3019 RMK AO2 SLP218
         T02440139
         
19Z KHOT 141853Z AUTO VRB04KT 10SM CLR 24/13 A3022 RMK AO2 SLP228
         T02390133
         
***** Yesterday's Observations (Above) *****


Back to Main Page
http://www.srh.noaa.gov/lzk/qfcst.php

USA.gov is the U.S. government's official web portal to all federal, state and local government web resources and services.